Time;durP1;ratioP1;P1;durP2;ratioP2;P2;SDS_P1;SDS_P2;PMS_P1;PMS_P2;Temp;Humidity;BMP_temperature;BMP_pressure;BME280_temperature;BME280_humidity;BME280_pressure;Samples;Min_cycle;Max_cycle;Signal;HPM_P1;HPM_P2
2021/11/03 00:01:17;;;;;;;2.95;1.90;;;8.50;99.90;;;;;;5071847;28;20223;-76
2021/11/03 00:03:47;;;;;;;2.65;2.00;;;8.50;99.90;;;;;;5071805;28;20290;-76
2021/11/03 00:06:16;;;;;;;3.08;1.80;;;8.50;99.90;;;;;;5071311;28;20176;-76
2021/11/03 00:08:42;;;;;;;4.15;2.40;;;8.50;99.90;;;;;;5072008;28;20171;-76
2021/11/03 00:11:09;;;;;;;3.73;2.13;;;8.50;99.90;;;;;;5071618;28;20180;-76
2021/11/03 00:13:35;;;;;;;5.88;1.85;;;8.50;99.90;;;;;;5071704;28;20601;-76
2021/11/03 00:16:00;;;;;;;2.43;2.13;;;8.50;99.90;;;;;;5071394;28;20184;-76
2021/11/03 00:18:26;;;;;;;2.65;1.77;;;8.50;99.90;;;;;;5053810;28;20583;-76
2021/11/03 00:20:54;;;;;;;2.20;1.47;;;8.50;99.90;;;;;;5071411;28;20188;-76
2021/11/03 00:23:20;;;;;;;2.97;2.00;;;8.50;99.90;;;;;;5053707;28;20529;-76
2021/11/03 00:25:46;;;;;;;4.93;1.83;;;8.50;99.90;;;;;;5071297;28;20168;-76
2021/11/03 00:28:14;;;;;;;2.50;1.80;;;8.50;99.90;;;;;;5053546;28;20168;-76
2021/11/03 00:30:40;;;;;;;2.60;1.48;;;8.50;99.90;;;;;;5053412;28;20195;-76
2021/11/03 00:33:06;;;;;;;3.95;1.60;;;8.50;99.90;;;;;;5053711;28;20180;-76
2021/11/03 00:35:32;;;;;;;2.83;2.20;;;8.50;99.90;;;;;;5071558;28;20199;-76
2021/11/03 00:37:58;;;;;;;2.90;1.40;;;8.60;99.90;;;;;;5053066;28;20172;-76
2021/11/03 00:40:24;;;;;;;2.53;1.53;;;8.50;99.90;;;;;;5071303;28;20192;-76
2021/11/03 00:42:50;;;;;;;2.20;1.75;;;8.50;99.90;;;;;;5053292;28;20164;-76
2021/11/03 00:45:18;;;;;;;2.10;1.40;;;8.60;99.90;;;;;;5053413;28;20168;-76
2021/11/03 00:47:44;;;;;;;3.00;1.77;;;8.50;99.90;;;;;;5071441;28;20256;-75
2021/11/03 00:50:12;;;;;;;1.95;1.75;;;8.50;99.90;;;;;;5055531;28;20180;-76
2021/11/03 00:52:38;;;;;;;2.78;1.23;;;8.50;99.90;;;;;;5057675;28;20544;-76
2021/11/03 00:55:05;;;;;;;2.65;2.00;;;8.50;99.90;;;;;;5058638;28;20183;-76
2021/11/03 00:57:32;;;;;;;2.58;2.28;;;8.50;99.90;;;;;;5059850;28;20182;-76
2021/11/03 00:59:58;;;;;;;2.90;1.70;;;8.50;99.90;;;;;;5058172;28;20290;-76
2021/11/03 01:02:24;;;;;;;1.67;1.43;;;8.50;99.90;;;;;;5042917;28;20514;-77
2021/11/03 01:04:51;;;;;;;2.30;1.88;;;8.40;99.90;;;;;;5040397;28;20606;-76
2021/11/03 01:07:17;;;;;;;2.90;1.80;;;8.40;99.90;;;;;;5075051;28;20168;-76
2021/11/03 01:09:43;;;;;;;1.93;1.53;;;8.40;99.90;;;;;;5075368;28;20196;-76
2021/11/03 01:12:10;;;;;;;2.40;1.80;;;8.40;99.90;;;;;;5057372;28;20629;-75
2021/11/03 01:14:37;;;;;;;2.70;1.85;;;8.40;99.90;;;;;;5057092;28;20172;-76
2021/11/03 01:17:04;;;;;;;4.85;2.30;;;8.30;99.90;;;;;;5074788;28;20547;-76
2021/11/03 01:19:30;;;;;;;2.47;2.10;;;8.30;99.90;;;;;;5056786;28;20210;-76
2021/11/03 01:21:56;;;;;;;1.93;1.37;;;8.30;99.90;;;;;;5056965;28;20180;-76
2021/11/03 01:24:23;;;;;;;3.33;2.42;;;8.40;99.90;;;;;;5074807;28;20180;-76
2021/11/03 01:26:48;;;;;;;1.92;1.65;;;8.40;99.90;;;;;;5074456;28;20168;-76
2021/11/03 01:29:14;;;;;;;3.23;2.07;;;8.40;99.90;;;;;;5040102;28;20184;-76
2021/11/03 01:31:40;;;;;;;2.63;1.60;;;8.40;99.90;;;;;;5056620;28;20175;-76
2021/11/03 01:34:06;;;;;;;2.58;2.30;;;8.50;99.90;;;;;;5074475;28;20562;-75
2021/11/03 01:36:33;;;;;;;1.98;1.60;;;8.50;99.90;;;;;;5056298;28;20175;-76
2021/11/03 01:38:58;;;;;;;1.90;1.60;;;8.50;99.90;;;;;;5056684;28;20185;-76
2021/11/03 01:41:24;;;;;;;1.90;1.60;;;8.50;99.90;;;;;;5056114;28;20721;-76
2021/11/03 01:44:06;;;;;;;5.32;2.30;;;8.50;99.90;;;;;;5056470;28;20165;-76
2021/11/03 01:46:37;;;;;;;2.20;1.83;;;8.50;99.90;;;;;;5074179;28;20256;-76
2021/11/03 01:49:28;;;;;;;2.55;2.30;;;8.50;99.90;;;;;;5056510;28;20160;-76
2021/11/03 01:52:06;;;;;;;3.63;2.25;;;8.50;99.90;;;;;;5056520;28;20574;-76
2021/11/03 01:54:55;;;;;;;4.55;1.52;;;8.50;99.90;;;;;;5056434;28;20173;-76
2021/11/03 01:57:29;;;;;;;3.45;1.80;;;8.50;99.90;;;;;;5039162;28;20215;-76
2021/11/03 01:59:58;;;;;;;2.35;1.75;;;8.50;99.90;;;;;;5056306;28;20212;-76
2021/11/03 02:02:26;;;;;;;3.05;1.75;;;8.60;99.90;;;;;;5055952;28;20176;-76
2021/11/03 02:04:54;;;;;;;2.85;2.08;;;8.50;99.90;;;;;;5056340;28;20172;-76
2021/11/03 02:07:24;;;;;;;2.17;1.70;;;8.60;99.90;;;;;;5055839;28;20203;-76
2021/11/03 02:09:52;;;;;;;5.70;1.80;;;8.50;99.90;;;;;;5056289;28;20196;-76
2021/11/03 02:12:21;;;;;;;3.42;2.15;;;8.50;99.90;;;;;;5074049;28;20190;-76
2021/11/03 02:14:49;;;;;;;2.75;2.05;;;8.50;99.90;;;;;;5055844;28;20218;-76
2021/11/03 02:17:16;;;;;;;2.35;2.15;;;8.50;99.90;;;;;;5055794;28;20208;-76
2021/11/03 02:19:44;;;;;;;2.88;1.80;;;8.50;99.90;;;;;;5039215;28;20564;-76
2021/11/03 02:22:47;;;;;;;2.33;1.88;;;8.50;99.90;;;;;;5056051;28;20180;-76
2021/11/03 02:25:21;;;;;;;2.47;2.22;;;8.50;99.90;;;;;;5061489;28;20188;-75
2021/11/03 02:27:50;;;;;;;2.75;2.30;;;8.40;99.90;;;;;;5063441;28;20214;-75
2021/11/03 02:30:21;;;;;;;2.50;2.30;;;8.40;99.90;;;;;;5063737;28;20265;-75
2021/11/03 02:32:56;;;;;;;2.75;2.38;;;8.40;99.90;;;;;;5064664;28;20169;-75
2021/11/03 02:35:22;;;;;;;4.68;2.53;;;8.40;99.90;;;;;;5061647;28;20180;-76
2021/11/03 02:37:52;;;;;;;3.42;3.13;;;8.40;99.90;;;;;;5045126;28;20176;-75
2021/11/03 02:40:31;;;;;;;3.30;3.00;;;8.30;99.90;;;;;;5039460;28;20214;-76
2021/11/03 02:43:19;;;;;;;2.63;2.22;;;8.30;99.90;;;;;;5055744;28;20168;-75
2021/11/03 02:45:54;;;;;;;3.45;3.15;;;8.30;99.90;;;;;;5005640;28;20223;-76
2021/11/03 02:48:24;;;;;;;2.67;2.20;;;8.30;99.90;;;;;;5039020;28;20178;-75
2021/11/03 02:51:13;;;;;;;3.40;3.10;;;8.30;99.90;;;;;;5055158;28;20553;-76
2021/11/03 02:54:04;;;;;;;3.78;3.38;;;8.30;99.90;;;;;;5055417;28;20251;-76
2021/11/03 02:56:39;;;;;;;3.33;3.03;;;8.30;99.90;;;;;;5054881;28;20200;-76
2021/11/03 02:59:06;;;;;;;4.80;4.05;;;8.20;99.90;;;;;;5054978;28;20207;-75
2021/11/03 03:01:43;;;;;;;4.80;4.30;;;8.20;99.90;;;;;;5054894;28;20196;-75
2021/11/03 03:04:13;;;;;;;4.07;3.75;;;8.10;99.90;;;;;;5055041;28;20171;-76
2021/11/03 03:06:39;;;;;;;3.85;3.45;;;8.10;99.90;;;;;;5054553;28;20640;-76
2021/11/03 03:09:07;;;;;;;4.28;3.88;;;8.10;99.90;;;;;;5054736;28;20173;-76
2021/11/03 03:11:35;;;;;;;4.20;3.80;;;8.00;99.90;;;;;;5038061;28;20172;-76
2021/11/03 03:14:03;;;;;;;5.20;4.18;;;8.00;99.90;;;;;;5037642;28;20186;-76
2021/11/03 03:16:30;;;;;;;4.93;4.43;;;8.00;99.90;;;;;;5037766;28;20175;-76
2021/11/03 03:18:56;;;;;;;4.43;4.03;;;8.00;99.90;;;;;;5054181;28;20250;-76
2021/11/03 03:21:23;;;;;;;5.10;4.13;;;8.10;99.90;;;;;;5054673;28;20667;-76
2021/11/03 03:23:50;;;;;;;4.35;3.90;;;8.10;99.90;;;;;;5054303;28;21090;-76
2021/11/03 03:26:19;;;;;;;3.92;3.50;;;8.10;99.90;;;;;;5054261;28;20581;-76
2021/11/03 03:28:46;;;;;;;5.25;3.85;;;8.10;99.90;;;;;;5054146;28;20183;-76
2021/11/03 03:31:13;;;;;;;4.72;4.20;;;8.10;99.90;;;;;;5037590;28;20192;-76
2021/11/03 03:33:40;;;;;;;4.63;4.13;;;8.20;99.90;;;;;;5054145;28;20160;-76
2021/11/03 03:36:07;;;;;;;4.60;4.20;;;8.20;99.90;;;;;;5054139;28;20172;-76
2021/11/03 03:38:33;;;;;;;4.72;4.32;;;8.20;99.90;;;;;;5054372;28;20557;-76
2021/11/03 03:40:59;;;;;;;4.25;3.55;;;8.20;99.90;;;;;;5038080;28;20290;-78
2021/11/03 03:43:25;;;;;;;5.40;4.00;;;8.20;99.90;;;;;;5054014;28;20545;-78
2021/11/03 03:45:52;;;;;;;4.88;4.38;;;8.20;99.90;;;;;;5054113;28;20573;-78
2021/11/03 03:48:18;;;;;;;5.20;4.70;;;8.20;99.90;;;;;;5054437;28;20164;-78
2021/11/03 03:50:44;;;;;;;5.75;5.22;;;8.20;99.90;;;;;;5037194;28;20606;-78
2021/11/03 03:53:11;;;;;;;5.05;4.55;;;8.20;99.90;;;;;;5037911;28;20168;-79
2021/11/03 03:55:38;;;;;;;7.35;5.35;;;8.20;99.90;;;;;;5071909;28;20172;-78
2021/11/03 03:58:06;;;;;;;5.25;4.35;;;8.20;99.90;;;;;;5054025;28;20251;-78
2021/11/03 04:00:33;;;;;;;5.57;4.28;;;8.20;99.90;;;;;;5071646;28;20234;-76
2021/11/03 04:02:59;;;;;;;4.05;3.35;;;8.30;99.90;;;;;;5037433;28;20183;-76
2021/11/03 04:05:25;;;;;;;6.07;4.57;;;8.30;99.90;;;;;;5037061;28;20168;-77
2021/11/03 04:07:54;;;;;;;6.72;6.03;;;8.30;99.90;;;;;;5053538;28;20577;-77
2021/11/03 04:10:20;;;;;;;5.60;4.72;;;8.30;99.90;;;;;;5053602;28;20269;-77
2021/11/03 04:12:46;;;;;;;5.70;4.80;;;8.30;99.90;;;;;;5053974;28;20172;-77
2021/11/03 04:15:13;;;;;;;5.23;4.30;;;8.20;99.90;;;;;;5056822;28;20175;-77
2021/11/03 04:17:39;;;;;;;5.45;4.95;;;8.30;99.90;;;;;;5053598;28;20172;-76
2021/11/03 04:20:07;;;;;;;7.33;5.27;;;8.30;99.90;;;;;;5036658;28;20553;-78
2021/11/03 04:22:33;;;;;;;7.35;6.22;;;8.30;99.90;;;;;;5037057;28;20172;-77
2021/11/03 04:24:59;;;;;;;7.18;6.35;;;8.30;99.90;;;;;;5053380;28;20217;-77
2021/11/03 04:27:25;;;;;;;7.75;6.75;;;8.30;99.90;;;;;;5036100;28;20204;-77
2021/11/03 04:29:51;;;;;;;4.75;4.35;;;8.20;99.90;;;;;;5036914;28;20188;-77
2021/11/03 04:32:18;;;;;;;8.55;7.05;;;8.30;99.90;;;;;;5036843;28;20263;-77
2021/11/03 04:34:44;;;;;;;7.30;6.03;;;8.30;99.90;;;;;;5053578;28;20202;-77
2021/11/03 04:37:10;;;;;;;6.85;5.65;;;8.30;99.90;;;;;;5036392;28;20259;-78
2021/11/03 04:39:38;;;;;;;6.50;5.80;;;8.30;99.90;;;;;;5053293;28;20210;-77
2021/11/03 04:42:05;;;;;;;7.70;6.00;;;8.30;99.90;;;;;;5036585;28;20172;-77
2021/11/03 04:44:31;;;;;;;7.78;5.93;;;8.30;99.90;;;;;;5053417;28;20172;-77
2021/11/03 04:46:59;;;;;;;5.60;4.93;;;8.30;99.90;;;;;;5052119;28;20173;-77
2021/11/03 04:49:29;;;;;;;5.97;5.38;;;8.40;99.90;;;;;;5036128;28;20195;-77
2021/11/03 04:51:56;;;;;;;5.95;5.03;;;8.40;99.90;;;;;;5040474;28;20180;-77
2021/11/03 04:54:25;;;;;;;6.45;5.75;;;8.50;99.90;;;;;;5052362;28;20226;-77
2021/11/03 04:56:51;;;;;;;7.90;5.90;;;8.50;99.90;;;;;;5051956;28;20655;-77
2021/11/03 04:59:18;;;;;;;8.10;5.95;;;8.50;99.90;;;;;;5052114;28;20204;-76
2021/11/03 05:01:44;;;;;;;6.93;5.53;;;8.50;99.90;;;;;;5052414;28;20230;-76
2021/11/03 05:04:11;;;;;;;7.25;6.45;;;8.50;99.90;;;;;;5036856;28;20165;-76
2021/11/03 05:06:40;;;;;;;6.30;5.65;;;8.50;99.90;;;;;;5053164;28;20169;-77
2021/11/03 05:09:09;;;;;;;8.13;6.72;;;8.50;99.90;;;;;;5053173;28;20168;-77
2021/11/03 05:11:35;;;;;;;6.70;5.63;;;8.50;99.90;;;;;;5053178;28;20169;-77
2021/11/03 05:14:03;;;;;;;9.07;6.55;;;8.60;99.90;;;;;;5052965;28;20541;-77
2021/11/03 05:16:31;;;;;;;6.10;5.47;;;8.60;99.90;;;;;;5052983;28;20196;-77
2021/11/03 05:18:59;;;;;;;6.85;6.15;;;8.60;99.90;;;;;;5036687;28;20249;-77
2021/11/03 05:21:26;;;;;;;6.28;5.63;;;8.60;99.90;;;;;;5053141;28;20536;-77
2021/11/03 05:23:55;;;;;;;7.32;6.43;;;8.70;99.90;;;;;;5036709;28;20184;-77
2021/11/03 05:26:24;;;;;;;9.40;6.60;;;8.70;99.90;;;;;;5070842;28;20164;-77
2021/11/03 05:28:52;;;;;;;7.68;5.88;;;8.70;99.90;;;;;;5075246;28;20168;-78
2021/11/03 05:31:18;;;;;;;7.90;6.80;;;8.70;99.90;;;;;;5052817;28;20564;-77
2021/11/03 05:33:44;;;;;;;8.65;6.85;;;8.80;99.90;;;;;;5069566;28;20171;-77
2021/11/03 05:36:17;;;;;;;7.27;6.53;;;8.80;99.90;;;;;;5070522;28;20179;-77
2021/11/03 05:38:43;;;;;;;7.70;6.88;;;8.80;99.90;;;;;;5073873;28;20255;-77
2021/11/03 05:41:09;;;;;;;6.25;5.65;;;8.80;99.90;;;;;;5055354;28;20282;-77
2021/11/03 05:43:35;;;;;;;7.50;5.93;;;8.80;99.90;;;;;;5055599;28;20707;-77
2021/11/03 05:46:00;;;;;;;6.70;6.00;;;8.80;99.90;;;;;;5073531;28;20589;-77
2021/11/03 05:48:28;;;;;;;8.87;7.07;;;8.90;99.90;;;;;;5073385;28;20638;-77
2021/11/03 05:50:55;;;;;;;6.72;5.25;;;8.80;99.90;;;;;;5074220;28;20637;-77
2021/11/03 05:53:20;;;;;;;7.80;5.60;;;8.90;99.90;;;;;;5073672;28;20199;-76
2021/11/03 05:55:46;;;;;;;6.83;6.10;;;8.90;99.90;;;;;;5065680;28;20160;-77
2021/11/03 05:58:12;;;;;;;7.03;5.80;;;8.90;99.90;;;;;;5056490;28;20561;-76
2021/11/03 06:00:39;;;;;;;7.57;5.20;;;9.00;99.90;;;;;;5074049;28;20227;-77
2021/11/03 06:03:05;;;;;;;5.97;5.20;;;9.00;99.90;;;;;;5056013;28;20176;-77
2021/11/03 06:05:31;;;;;;;6.63;5.80;;;9.00;99.90;;;;;;5057251;28;20168;-77
2021/11/03 06:07:58;;;;;;;6.60;5.87;;;9.00;99.90;;;;;;5056033;28;20634;-77
2021/11/03 06:10:32;;;;;;;6.88;6.05;;;9.10;99.90;;;;;;5073791;28;21007;-77
2021/11/03 06:13:01;;;;;;;5.38;4.88;;;9.10;99.90;;;;;;5073337;28;20537;-77
2021/11/03 06:15:28;;;;;;;6.55;5.70;;;9.10;99.90;;;;;;5073039;28;20263;-77
2021/11/03 06:17:55;;;;;;;7.05;5.88;;;9.10;99.90;;;;;;5055699;28;20181;-77
2021/11/03 06:20:22;;;;;;;5.75;5.25;;;9.10;99.90;;;;;;5039376;28;20731;-77
2021/11/03 06:22:48;;;;;;;7.93;5.30;;;9.20;99.90;;;;;;5039195;28;20175;-77
2021/11/03 06:25:16;;;;;;;7.27;5.10;;;9.20;99.90;;;;;;5055728;28;20527;-77
2021/11/03 06:27:43;;;;;;;5.93;5.00;;;9.20;99.90;;;;;;5055745;28;20156;-77
2021/11/03 06:30:12;;;;;;;7.88;5.63;;;9.30;99.90;;;;;;5073389;28;20262;-77
2021/11/03 06:32:38;;;;;;;5.93;5.32;;;9.30;99.90;;;;;;5073851;28;20169;-77
2021/11/03 06:35:06;;;;;;;7.27;5.57;;;9.30;99.90;;;;;;5055781;28;20171;-77
2021/11/03 06:37:32;;;;;;;7.20;5.63;;;9.30;99.90;;;;;;5055769;28;20195;-79
2021/11/03 06:39:58;;;;;;;5.57;4.97;;;9.40;99.90;;;;;;5055394;28;20261;-78
2021/11/03 06:42:24;;;;;;;6.72;5.50;;;9.40;99.90;;;;;;5055422;28;20408;-77
2021/11/03 06:44:51;;;;;;;6.37;5.23;;;9.40;99.90;;;;;;5039207;28;20199;-77
2021/11/03 06:47:19;;;;;;;5.88;5.32;;;9.40;99.90;;;;;;5073178;28;20566;-77
2021/11/03 06:49:46;;;;;;;5.55;4.95;;;9.40;99.90;;;;;;5072894;28;20781;-77
2021/11/03 06:52:11;;;;;;;5.70;5.13;;;9.40;99.90;;;;;;5069005;28;20207;-76
2021/11/03 06:54:37;;;;;;;6.37;5.77;;;9.50;99.90;;;;;;5053654;28;20185;-76
2021/11/03 06:57:04;;;;;;;5.40;4.60;;;9.50;99.90;;;;;;5034894;28;20572;-77
2021/11/03 06:59:30;;;;;;;6.55;4.22;;;9.50;99.90;;;;;;5035291;28;21010;-77
2021/11/03 07:01:56;;;;;;;6.30;5.43;;;9.50;99.90;;;;;;5053002;28;20176;-78
2021/11/03 07:04:22;;;;;;;5.53;4.60;;;9.50;99.90;;;;;;5035624;28;20165;-81
2021/11/03 07:06:48;;;;;;;6.03;5.33;;;9.50;99.90;;;;;;5035682;28;20176;-80
2021/11/03 07:09:14;;;;;;;5.13;4.63;;;9.40;99.90;;;;;;5053875;28;21124;-80
2021/11/03 07:11:40;;;;;;;5.13;4.40;;;9.40;99.90;;;;;;5053583;28;20206;-80
2021/11/03 07:14:07;;;;;;;6.43;5.22;;;9.50;99.90;;;;;;5052772;28;20566;-80
2021/11/03 07:16:34;;;;;;;6.47;5.38;;;9.40;99.90;;;;;;5034430;28;20203;-81
2021/11/03 07:19:00;;;;;;;5.43;4.75;;;9.50;99.90;;;;;;5057350;28;20197;-80
2021/11/03 07:21:26;;;;;;;8.05;5.40;;;9.50;99.90;;;;;;5052697;28;20196;-80
2021/11/03 07:23:52;;;;;;;6.40;5.40;;;9.50;99.90;;;;;;5040383;28;20574;-81
2021/11/03 07:26:18;;;;;;;5.20;4.50;;;9.50;99.90;;;;;;5072957;28;20621;-81
2021/11/03 07:28:44;;;;;;;4.33;3.90;;;9.60;99.90;;;;;;5054688;28;20172;-81
2021/11/03 07:31:10;;;;;;;4.70;4.28;;;9.60;99.90;;;;;;5054608;28;20595;-81
2021/11/03 07:33:36;;;;;;;4.25;3.85;;;9.70;99.90;;;;;;5054528;28;20199;-81
2021/11/03 07:36:04;;;;;;;4.68;4.15;;;9.70;99.90;;;;;;5072392;28;20203;-81
2021/11/03 07:38:30;;;;;;;4.93;4.53;;;9.70;99.90;;;;;;5038031;28;20194;-81
2021/11/03 07:40:57;;;;;;;5.87;5.10;;;9.70;99.90;;;;;;5054223;28;20226;-81
2021/11/03 07:43:25;;;;;;;5.20;4.70;;;9.80;99.90;;;;;;5072350;28;20256;-80
2021/11/03 07:45:53;;;;;;;5.13;4.60;;;9.90;99.90;;;;;;5071890;28;20157;-81
2021/11/03 07:48:21;;;;;;;5.03;4.53;;;9.90;99.90;;;;;;5072107;28;20193;-81
2021/11/03 07:50:53;;;;;;;5.40;4.50;;;9.90;99.90;;;;;;5053872;28;20224;-81
2021/11/03 07:53:21;;;;;;;6.32;4.63;;;10.00;99.90;;;;;;5072130;28;20177;-81
2021/11/03 07:55:51;;;;;;;6.47;5.88;;;10.00;99.90;;;;;;5072891;28;20168;-81
2021/11/03 07:58:19;;;;;;;4.82;3.92;;;10.00;99.90;;;;;;5072138;28;20172;-81
2021/11/03 08:00:45;;;;;;;4.30;3.90;;;10.10;99.90;;;;;;5053593;28;20208;-81
2021/11/03 08:03:11;;;;;;;5.22;4.72;;;10.10;99.90;;;;;;5072123;28;20533;-81
2021/11/03 08:05:37;;;;;;;4.57;4.13;;;10.10;99.90;;;;;;5054241;28;20156;-81
2021/11/03 08:08:10;;;;;;;5.10;4.57;;;10.10;99.90;;;;;;5071702;28;20222;-80
2021/11/03 08:10:37;;;;;;;4.65;4.25;;;10.10;99.90;;;;;;5054418;28;20203;-81
2021/11/03 08:13:04;;;;;;;5.70;4.22;;;10.20;99.90;;;;;;5071647;28;20195;-81
2021/11/03 08:15:30;;;;;;;4.55;3.75;;;10.20;99.90;;;;;;5072020;28;20831;-81
2021/11/03 08:17:57;;;;;;;4.67;3.63;;;10.30;99.90;;;;;;5071606;28;20208;-81
2021/11/03 08:20:25;;;;;;;4.10;3.20;;;10.30;99.90;;;;;;5071909;28;20649;-81
2021/11/03 08:22:55;;;;;;;5.10;3.63;;;10.30;99.90;;;;;;5071411;28;20231;-81
2021/11/03 08:25:22;;;;;;;5.53;3.90;;;10.40;99.90;;;;;;5037575;28;20179;-81
2021/11/03 08:27:48;;;;;;;3.25;2.95;;;10.40;99.90;;;;;;5053452;28;20165;-80
2021/11/03 08:30:15;;;;;;;14.98;5.43;;;10.50;99.90;;;;;;5071960;28;20203;-81
2021/11/03 08:32:50;;;;;;;4.07;3.67;;;10.50;99.90;;;;;;5076321;28;20160;-82
2021/11/03 08:35:18;;;;;;;6.03;4.65;;;10.50;99.90;;;;;;5072047;28;20179;-81
2021/11/03 08:37:46;;;;;;;4.00;3.60;;;10.50;99.90;;;;;;5071713;28;20168;-82
2021/11/03 08:40:15;;;;;;;5.07;4.30;;;10.50;99.90;;;;;;5053266;28;20204;-81
2021/11/03 08:42:41;;;;;;;4.05;3.65;;;10.50;99.90;;;;;;5071450;28;20175;-81
2021/11/03 08:45:09;;;;;;;5.10;3.72;;;10.50;99.90;;;;;;5071421;28;20157;-81
2021/11/03 08:47:37;;;;;;;4.15;3.75;;;10.60;99.90;;;;;;5071097;28;20175;-81
2021/11/03 08:50:06;;;;;;;4.28;3.70;;;10.60;99.90;;;;;;5071214;28;20223;-81
2021/11/03 08:52:32;;;;;;;4.13;3.72;;;10.60;99.90;;;;;;5071541;28;20176;-82
2021/11/03 08:54:57;;;;;;;5.00;4.03;;;10.60;99.90;;;;;;5071612;28;20168;-81
2021/11/03 08:57:24;;;;;;;5.07;4.27;;;10.60;99.90;;;;;;5071071;28;20168;-82
2021/11/03 08:59:51;;;;;;;6.38;4.93;;;10.60;99.90;;;;;;5071142;28;20204;-82
2021/11/03 09:02:17;;;;;;;6.30;4.13;;;10.60;99.90;;;;;;5071398;28;20175;-82
2021/11/03 09:04:45;;;;;;;5.55;4.47;;;10.60;99.90;;;;;;5071332;28;20247;-80
2021/11/03 09:07:12;;;;;;;4.93;4.43;;;10.60;99.90;;;;;;5052481;28;20726;-81
2021/11/03 09:09:42;;;;;;;3.45;3.15;;;10.70;99.90;;;;;;5075471;28;20192;-81
2021/11/03 09:12:08;;;;;;;6.28;4.50;;;10.70;99.90;;;;;;5071921;28;20652;-81
2021/11/03 09:14:35;;;;;;;4.00;3.55;;;10.70;99.90;;;;;;5075293;28;20964;-81
2021/11/03 09:17:01;;;;;;;5.57;5.05;;;10.80;99.90;;;;;;5075243;28;20213;-79
2021/11/03 09:19:27;;;;;;;7.55;5.95;;;10.80;99.90;;;;;;5056992;28;20204;-80
2021/11/03 09:21:52;;;;;;;5.33;4.53;;;10.80;99.90;;;;;;5074247;28;20214;-80
2021/11/03 09:24:18;;;;;;;4.93;4.13;;;10.80;99.90;;;;;;5070656;28;20245;-81
2021/11/03 09:26:44;;;;;;;4.50;3.90;;;10.80;99.90;;;;;;5057391;28;20575;-82
2021/11/03 09:29:12;;;;;;;7.10;3.77;;;10.80;99.90;;;;;;5057028;28;20536;-81
2021/11/03 09:31:39;;;;;;;6.03;4.55;;;10.80;99.90;;;;;;5056614;28;20173;-82
2021/11/03 09:34:05;;;;;;;5.28;4.20;;;10.80;99.90;;;;;;5074299;28;20169;-82
2021/11/03 09:36:32;;;;;;;4.80;4.32;;;10.90;99.90;;;;;;5074418;28;20654;-81
2021/11/03 09:38:58;;;;;;;4.85;3.85;;;10.90;99.90;;;;;;5074416;28;20532;-81
2021/11/03 09:41:44;;;;;;;6.75;4.40;;;11.00;99.90;;;;;;5074841;28;20691;-73
2021/11/03 09:44:20;;;;;;;5.95;5.35;;;11.10;99.90;;;;;;5056208;28;20161;-74
2021/11/03 09:46:52;;;;;;;8.40;5.03;;;11.10;99.90;;;;;;5073972;28;20191;-74
2021/11/03 09:49:23;;;;;;;6.35;5.22;;;11.20;99.90;;;;;;5074036;28;20718;-74
2021/11/03 09:51:54;;;;;;;8.20;5.72;;;11.20;99.90;;;;;;5074346;28;20175;-74
2021/11/03 09:54:26;;;;;;;4.82;4.38;;;11.20;99.90;;;;;;5073837;28;20173;-73
2021/11/03 09:57:29;;;;;;;7.03;4.65;;;11.30;99.90;;;;;;5073796;28;20191;-74
2021/11/03 10:00:19;;;;;;;4.93;4.18;;;11.30;99.90;;;;;;5073799;28;20540;-73
2021/11/03 10:02:53;;;;;;;5.07;3.55;;;11.30;99.90;;;;;;5074037;28;20172;-72
2021/11/03 10:05:30;;;;;;;4.88;4.38;;;11.30;99.90;;;;;;5073995;28;20176;-73
2021/11/03 10:08:10;;;;;;;5.00;4.30;;;11.30;99.90;;;;;;5073902;28;20164;-73
2021/11/03 10:11:01;;;;;;;5.50;4.40;;;11.40;99.90;;;;;;5073566;28;20222;-72
2021/11/03 10:13:31;;;;;;;4.93;4.43;;;11.40;99.90;;;;;;5056589;28;20586;-75
2021/11/03 10:15:59;;;;;;;4.53;4.13;;;11.40;99.90;;;;;;5075819;28;20202;-75
2021/11/03 10:18:30;;;;;;;5.03;4.50;;;11.40;99.90;;;;;;5075237;28;20542;-73
2021/11/03 10:21:01;;;;;;;6.22;4.32;;;11.40;99.90;;;;;;5063987;28;20208;-74
2021/11/03 10:23:32;;;;;;;5.10;4.60;;;11.50;99.90;;;;;;5058275;28;20172;-72
2021/11/03 10:26:05;;;;;;;5.80;4.57;;;11.50;99.90;;;;;;5040828;28;20263;-73
2021/11/03 10:28:37;;;;;;;5.75;4.60;;;11.60;99.90;;;;;;5073906;28;20164;-73
2021/11/03 10:31:07;;;;;;;7.07;4.88;;;11.60;99.90;;;;;;5073513;28;20253;-73
2021/11/03 10:33:39;;;;;;;4.70;4.20;;;11.60;99.90;;;;;;5073767;28;20698;-73
2021/11/03 10:36:17;;;;;;;5.00;4.50;;;11.60;99.90;;;;;;5073626;28;20168;-73
2021/11/03 10:38:55;;;;;;;5.35;4.10;;;11.60;99.90;;;;;;5055754;28;20313;-73
2021/11/03 10:41:31;;;;;;;5.07;4.63;;;11.60;99.90;;;;;;5055509;28;20583;-73
2021/11/03 10:44:18;;;;;;;4.53;4.13;;;11.60;99.90;;;;;;5055319;28;20264;-73
2021/11/03 10:46:56;;;;;;;10.38;4.63;;;11.60;99.90;;;;;;5073366;28;20567;-73
2021/11/03 10:49:37;;;;;;;5.65;5.03;;;11.60;99.90;;;;;;5073327;28;20207;-73
2021/11/03 10:52:20;;;;;;;5.13;3.90;;;11.60;99.90;;;;;;5073318;28;20179;-73
2021/11/03 10:54:59;;;;;;;5.10;4.05;;;11.60;99.90;;;;;;5055317;28;20632;-73
2021/11/03 10:57:36;;;;;;;6.30;4.60;;;11.60;99.90;;;;;;5073068;28;20199;-73
2021/11/03 11:00:36;;;;;;;5.95;4.90;;;11.50;99.90;;;;;;5054624;28;20208;-73
2021/11/03 11:03:18;;;;;;;4.65;3.72;;;11.50;99.90;;;;;;5058449;28;20552;-74
2021/11/03 11:05:51;;;;;;;4.88;4.45;;;11.50;99.90;;;;;;5073398;28;20536;-73
2021/11/03 11:08:24;;;;;;;4.93;4.45;;;11.50;99.90;;;;;;5073774;28;20187;-74
2021/11/03 11:11:07;;;;;;;4.10;3.70;;;11.50;99.90;;;;;;5072786;28;20200;-74
2021/11/03 11:13:42;;;;;;;5.80;5.07;;;11.40;99.90;;;;;;5073813;28;20172;-73
2021/11/03 11:16:16;;;;;;;4.78;4.38;;;11.50;99.90;;;;;;5073862;28;20179;-74
2021/11/03 11:19:22;;;;;;;5.90;5.30;;;11.50;99.90;;;;;;5055832;28;20199;-74
2021/11/03 11:21:56;;;;;;;4.65;4.22;;;11.40;99.90;;;;;;5072639;28;20187;-74
2021/11/03 11:24:32;;;;;;;4.30;3.90;;;11.40;99.90;;;;;;5072745;28;20261;-74
2021/11/03 11:27:15;;;;;;;4.68;4.28;;;11.40;99.90;;;;;;5072559;28;20178;-74
2021/11/03 11:30:02;;;;;;;4.88;4.35;;;11.40;99.90;;;;;;5072585;28;20588;-73
2021/11/03 11:32:57;;;;;;;5.95;4.80;;;11.40;99.90;;;;;;5072423;28;20577;-74
2021/11/03 11:35:53;;;;;;;4.65;3.90;;;11.40;99.90;;;;;;5071983;28;20179;-74
2021/11/03 11:38:28;;;;;;;3.80;3.45;;;11.40;99.90;;;;;;5054732;28;20168;-74
2021/11/03 11:41:03;;;;;;;4.90;4.40;;;11.40;99.90;;;;;;5054030;28;20211;-74
2021/11/03 11:43:38;;;;;;;4.18;3.70;;;11.40;99.90;;;;;;5072204;28;20168;-75
2021/11/03 11:46:20;;;;;;;5.28;4.57;;;11.40;99.90;;;;;;5072302;28;20200;-75
2021/11/03 11:48:54;;;;;;;5.75;4.78;;;11.40;99.90;;;;;;5072541;28;20168;-75
2021/11/03 11:51:31;;;;;;;5.45;4.10;;;11.40;99.90;;;;;;5054494;28;20192;-75
2021/11/03 11:53:56;;;;;;;5.90;4.57;;;11.40;99.90;;;;;;5072332;28;20182;-75
2021/11/03 11:56:34;;;;;;;5.27;4.77;;;11.40;99.90;;;;;;5052135;28;20172;-76
2021/11/03 11:59:20;;;;;;;4.47;4.05;;;11.40;99.90;;;;;;5071419;28;20237;-75
2021/11/03 12:01:48;;;;;;;4.65;3.83;;;11.40;99.90;;;;;;5074573;28;20164;-75
2021/11/03 12:04:20;;;;;;;5.03;3.38;;;11.30;99.90;;;;;;5061120;28;20172;-75
2021/11/03 12:06:46;;;;;;;4.63;4.18;;;11.30;99.90;;;;;;5087224;28;20515;-75
2021/11/03 12:09:34;;;;;;;4.83;3.37;;;11.30;99.90;;;;;;5073092;28;20254;-75
2021/11/03 12:12:06;;;;;;;3.90;3.47;;;11.30;99.90;;;;;;5071587;28;20259;-74
2021/11/03 12:15:01;;;;;;;4.10;3.70;;;11.30;99.90;;;;;;5074958;28;20548;-75
2021/11/03 12:17:42;;;;;;;4.10;3.70;;;11.30;99.90;;;;;;5058043;28;20535;-74
2021/11/03 12:20:26;;;;;;;4.50;3.70;;;11.30;99.90;;;;;;5051325;28;20629;-75
2021/11/03 12:22:52;;;;;;;5.03;3.85;;;11.30;99.90;;;;;;5050030;28;20169;-74
2021/11/03 12:25:17;;;;;;;5.50;4.00;;;11.30;99.90;;;;;;5051379;28;20172;-75
2021/11/03 12:27:46;;;;;;;4.60;2.93;;;11.30;99.90;;;;;;5051150;28;20169;-74
2021/11/03 12:30:15;;;;;;;6.32;5.15;;;11.30;99.90;;;;;;5062796;28;20204;-75
2021/11/03 12:32:43;;;;;;;5.03;4.53;;;11.30;99.90;;;;;;5071166;28;20173;-75
2021/11/03 12:35:18;;;;;;;5.00;4.55;;;11.30;99.90;;;;;;5071212;28;20511;-74
2021/11/03 12:38:21;;;;;;;4.65;4.15;;;11.30;99.90;;;;;;5071062;28;20660;-74
2021/11/03 12:40:50;;;;;;;4.68;4.00;;;11.30;99.90;;;;;;5070804;28;20614;-74
2021/11/03 12:43:29;;;;;;;3.92;3.55;;;11.30;99.90;;;;;;5053387;28;20175;-75
2021/11/03 12:46:14;;;;;;;4.25;3.40;;;11.30;99.90;;;;;;5070449;28;20601;-74
2021/11/03 12:48:50;;;;;;;5.20;2.90;;;11.30;99.90;;;;;;5053175;28;20168;-74
2021/11/03 12:51:36;;;;;;;3.35;3.05;;;11.30;99.90;;;;;;5052749;28;20556;-74
2021/11/03 12:54:02;;;;;;;3.17;2.75;;;11.30;99.90;;;;;;5053350;28;20581;-74
2021/11/03 12:56:34;;;;;;;2.70;2.27;;;11.30;99.90;;;;;;5070798;28;20164;-74
2021/11/03 12:59:04;;;;;;;3.88;3.30;;;11.30;99.90;;;;;;5053040;28;20254;-74
2021/11/03 13:01:33;;;;;;;3.70;3.25;;;11.30;99.90;;;;;;5070667;28;20587;-75
2021/11/03 13:04:21;;;;;;;4.40;3.53;;;11.30;99.90;;;;;;5070630;28;20180;-74
2021/11/03 13:06:53;;;;;;;4.20;2.92;;;11.30;99.90;;;;;;5070884;28;21000;-74
2021/11/03 13:09:38;;;;;;;3.63;2.83;;;11.30;99.90;;;;;;5074245;28;20505;-74